createdAt,value
2023-04-30T00:11:03.746Z,15.8
2023-04-30T00:41:04.154Z,15.7
2023-04-30T01:11:04.573Z,15.7
2023-04-30T01:41:05.139Z,15.6
2023-04-30T02:11:05.568Z,15.7
2023-04-30T02:41:05.984Z,15.7
2023-04-30T03:11:06.470Z,15.7
2023-04-30T03:41:06.940Z,15.7
2023-04-30T04:41:07.679Z,15.7
2023-04-30T05:11:08.111Z,15.7
2023-04-30T05:41:08.518Z,15.7
2023-04-30T06:11:09.003Z,15.7
2023-04-30T06:41:09.433Z,15.7
2023-04-30T07:11:09.819Z,15.7
2023-04-30T07:41:10.235Z,15.7
2023-04-30T08:11:10.674Z,15.8
2023-04-30T08:41:11.104Z,15.8
2023-04-30T09:11:21.486Z,15.9
2023-04-30T09:41:31.867Z,16
2023-04-30T10:11:32.594Z,16.2
2023-04-30T10:41:35.316Z,16.5
2023-04-30T11:11:35.910Z,16.5
2023-04-30T11:41:36.360Z,16.6
2023-04-30T12:11:38.281Z,16.4
2023-04-30T12:41:38.726Z,16.5
2023-04-30T13:11:39.504Z,16.3
2023-04-30T13:41:39.986Z,16.2
2023-04-30T14:11:40.379Z,16.3
2023-04-30T14:41:40.793Z,16.3
2023-04-30T15:41:43.952Z,16.2
2023-04-30T16:11:54.937Z,16.2
2023-04-30T16:41:55.418Z,16.2
2023-04-30T17:11:55.836Z,16
2023-04-30T17:42:08.207Z,16.1
2023-04-30T18:12:05.221Z,16.1
2023-04-30T18:42:06.096Z,16
2023-04-30T19:12:06.694Z,16
2023-04-30T19:42:07.201Z,16.1
2023-04-30T20:12:17.541Z,16
2023-04-30T20:42:18.371Z,16
2023-04-30T21:12:18.872Z,16
2023-04-30T21:42:22.136Z,15.9
2023-04-30T22:12:35.661Z,15.9
2023-04-30T22:42:36.111Z,15.9
2023-04-30T23:12:39.412Z,15.9
2023-04-30T23:42:50.180Z,15.8
